createdAt,value
2022-07-31T04:00:31.244Z,21.41
2022-07-31T04:05:31.194Z,21.48
2022-07-31T04:10:31.127Z,21.57
2022-07-31T04:15:31.076Z,21.54
2022-07-31T04:20:31.019Z,21.73
2022-07-31T04:25:30.968Z,21.71
2022-07-31T04:30:30.941Z,21.81
2022-07-31T04:35:30.859Z,21.79
2022-07-31T04:40:30.800Z,21.90
2022-07-31T04:45:30.743Z,21.85
2022-07-31T04:50:30.688Z,21.95
2022-07-31T04:55:30.635Z,22.06
2022-07-31T05:00:30.582Z,22.17
2022-07-31T05:05:30.613Z,22.51
2022-07-31T05:10:30.563Z,22.62
2022-07-31T05:15:30.421Z,22.54
2022-07-31T05:20:30.368Z,22.38
2022-07-31T05:25:30.315Z,22.56
2022-07-31T05:30:30.904Z,22.74
2022-07-31T05:35:30.201Z,22.72
2022-07-31T05:40:30.153Z,22.65
2022-07-31T05:45:30.101Z,22.68
2022-07-31T05:50:30.047Z,22.64
2022-07-31T05:55:29.994Z,22.78
2022-07-31T06:00:29.946Z,23.28
2022-07-31T06:05:29.883Z,23.53
2022-07-31T06:10:29.836Z,23.97
2022-07-31T06:15:34.389Z,24.35
2022-07-31T06:20:30.724Z,24.51
2022-07-31T06:25:31.833Z,25.23
2022-07-31T06:30:30.624Z,25.98
2022-07-31T06:35:29.552Z,25.61
2022-07-31T06:40:29.512Z,26.02
2022-07-31T06:45:48.866Z,26.35
2022-07-31T06:50:30.403Z,26.19
2022-07-31T06:55:29.333Z,26.41
2022-07-31T07:00:29.299Z,25.55
2022-07-31T07:05:29.250Z,24.73
2022-07-31T07:10:29.173Z,24.54
2022-07-31T07:15:29.133Z,24.20
2022-07-31T07:20:29.082Z,24.32
2022-07-31T07:25:29.012Z,24.56
2022-07-31T07:30:28.979Z,24.47
2022-07-31T07:35:33.821Z,24.64
2022-07-31T07:40:29.875Z,24.47
2022-07-31T07:45:28.805Z,24.18
2022-07-31T07:50:29.486Z,24.23
2022-07-31T07:55:37.426Z,24.36
2022-07-31T08:00:29.662Z,24.27
2022-07-31T08:05:28.593Z,24.79
2022-07-31T08:10:28.560Z,25.53
2022-07-31T08:15:28.499Z,25.61
2022-07-31T08:20:28.438Z,25.14
2022-07-31T08:25:31.977Z,25.73
2022-07-31T08:30:30.684Z,27.26
2022-07-31T08:35:28.282Z,28.53
2022-07-31T08:40:28.243Z,28.43
2022-07-31T08:45:28.182Z,27.84
2022-07-31T08:50:28.114Z,28.84
2022-07-31T08:55:55.910Z,27.48
2022-07-31T09:00:29.025Z,26.73
2022-07-31T09:05:27.958Z,26.79
2022-07-31T09:10:28.923Z,27.32
2022-07-31T09:15:27.868Z,28.59
2022-07-31T09:20:27.833Z,29.76
2022-07-31T09:25:27.747Z,29.81
2022-07-31T09:30:27.707Z,30.66
2022-07-31T09:35:27.670Z,31.58
2022-07-31T09:40:27.595Z,30.80
2022-07-31T09:45:27.552Z,29.28
2022-07-31T09:50:27.709Z,28.84
2022-07-31T09:55:27.434Z,28.01
2022-07-31T10:00:27.394Z,28.06
2022-07-31T10:05:27.360Z,28.39
2022-07-31T10:10:27.280Z,28.52
2022-07-31T10:15:27.245Z,27.89
2022-07-31T10:20:27.188Z,27.78
2022-07-31T10:25:27.126Z,27.20
2022-07-31T10:30:28.299Z,27.16
2022-07-31T10:35:27.031Z,27.48
2022-07-31T10:40:27.006Z,27.91
2022-07-31T10:45:26.931Z,28.56
2022-07-31T10:50:26.876Z,29.47
2022-07-31T10:55:26.820Z,30.04
2022-07-31T11:00:28.371Z,30.93
2022-07-31T11:05:26.719Z,30.06
2022-07-31T11:10:26.668Z,29.42
2022-07-31T11:15:26.619Z,29.56
2022-07-31T11:20:26.562Z,29.39
2022-07-31T11:25:26.513Z,29.53
2022-07-31T11:30:26.461Z,28.12
2022-07-31T11:35:26.410Z,27.92
2022-07-31T11:40:27.346Z,27.60
2022-07-31T11:45:26.308Z,27.92
2022-07-31T11:50:27.246Z,28.65
2022-07-31T11:55:26.302Z,28.49
2022-07-31T12:00:29.712Z,28.13
2022-07-31T12:05:37.599Z,27.06
2022-07-31T12:10:27.041Z,27.15
2022-07-31T12:15:25.996Z,28.87
2022-07-31T12:20:35.420Z,30.18
2022-07-31T12:25:26.919Z,30.21
2022-07-31T12:30:29.896Z,30.48
2022-07-31T12:35:25.779Z,30.08
2022-07-31T12:40:26.737Z,30.43
2022-07-31T12:45:25.658Z,30.90
2022-07-31T12:50:25.620Z,29.43
2022-07-31T12:55:25.576Z,28.28
2022-07-31T13:00:25.517Z,28.81
2022-07-31T13:05:25.471Z,28.22
2022-07-31T13:10:32.086Z,29.01
2022-07-31T13:15:25.366Z,29.02
2022-07-31T13:20:25.306Z,29.04
2022-07-31T13:25:25.260Z,29.78
2022-07-31T13:30:25.272Z,29.57
2022-07-31T13:35:27.560Z,28.84
2022-07-31T13:40:25.100Z,28.30
2022-07-31T13:45:25.048Z,27.92
2022-07-31T13:50:25.017Z,27.74
2022-07-31T13:55:24.942Z,27.58
2022-07-31T14:00:24.889Z,27.71
2022-07-31T14:05:26.717Z,27.65
2022-07-31T14:10:24.788Z,27.70
2022-07-31T14:15:29.912Z,27.65
2022-07-31T14:20:25.853Z,28.75
2022-07-31T14:25:24.630Z,29.33
2022-07-31T14:30:24.576Z,29.31
2022-07-31T14:35:24.572Z,29.19
2022-07-31T14:40:24.578Z,28.62
2022-07-31T14:45:24.424Z,28.66
2022-07-31T14:50:24.494Z,29.17
2022-07-31T14:55:24.312Z,29.57
2022-07-31T15:00:24.261Z,29.08
2022-07-31T15:06:39.279Z,28.69
2022-07-31T15:10:25.152Z,28.52
2022-07-31T15:15:24.106Z,28.28
2022-07-31T15:20:28.915Z,28.26
2022-07-31T15:25:24.000Z,28.73
2022-07-31T15:30:23.947Z,28.62
2022-07-31T15:35:23.997Z,28.58
2022-07-31T15:40:23.844Z,28.88
2022-07-31T15:45:23.793Z,28.22
2022-07-31T15:50:23.742Z,28.39
2022-07-31T15:55:23.679Z,28.89
2022-07-31T16:00:23.618Z,29.22
2022-07-31T16:05:36.566Z,29.11
2022-07-31T16:10:24.534Z,28.61
2022-07-31T16:15:30.512Z,28.11
2022-07-31T16:20:26.282Z,28.46
2022-07-31T16:25:23.372Z,28.47
2022-07-31T16:30:23.332Z,28.28
2022-07-31T16:35:23.251Z,28.27
2022-07-31T16:40:30.047Z,28.21
2022-07-31T16:45:24.169Z,28.07
2022-07-31T16:50:23.092Z,27.79
2022-07-31T16:55:46.084Z,27.63
2022-07-31T17:00:23.995Z,27.76
2022-07-31T17:05:22.924Z,27.88
2022-07-31T17:10:22.890Z,27.87
2022-07-31T17:15:22.847Z,27.82
2022-07-31T17:20:22.767Z,27.26
2022-07-31T17:25:22.726Z,27.34
2022-07-31T17:30:22.682Z,27.31
2022-07-31T17:35:22.603Z,27.48
2022-07-31T17:40:42.407Z,27.58
2022-07-31T17:45:23.520Z,27.72
2022-07-31T17:50:22.444Z,27.43
2022-07-31T17:55:22.399Z,27.21
2022-07-31T18:00:22.369Z,26.89
2022-07-31T18:05:23.300Z,26.59
2022-07-31T18:10:38.584Z,25.88
2022-07-31T18:15:23.191Z,23.51
2022-07-31T18:20:23.136Z,23.27
2022-07-31T18:25:22.070Z,23.73
2022-07-31T18:30:22.054Z,23.53
2022-07-31T18:35:21.971Z,23.58
2022-07-31T18:40:21.918Z,23.45
2022-07-31T18:45:21.865Z,23.55
2022-07-31T18:51:01.370Z,23.68
2022-07-31T18:55:22.752Z,23.60
2022-07-31T19:00:21.712Z,23.68
2022-07-31T19:05:22.007Z,23.68
2022-07-31T19:10:29.536Z,23.35
2022-07-31T19:15:22.541Z,23.04
2022-07-31T19:20:57.519Z,23.18
2022-07-31T19:25:22.434Z,22.98
2022-07-31T19:30:21.385Z,22.81
2022-07-31T19:35:21.343Z,22.90
2022-07-31T19:40:21.256Z,23.03
2022-07-31T19:45:21.218Z,22.86
2022-07-31T19:50:21.162Z,22.83
2022-07-31T19:55:21.114Z,22.86
2022-07-31T20:00:21.054Z,23.07
2022-07-31T20:05:20.994Z,23.15
2022-07-31T20:10:20.944Z,23.04
2022-07-31T20:15:20.887Z,23.02
2022-07-31T20:20:20.844Z,22.92
2022-07-31T20:25:20.839Z,23.01
2022-07-31T20:30:20.726Z,22.92
2022-07-31T20:35:33.087Z,22.71
2022-07-31T20:40:21.613Z,22.92
2022-07-31T20:45:20.570Z,22.82
2022-07-31T20:50:20.506Z,22.89
2022-07-31T20:55:20.452Z,22.92
2022-07-31T21:00:20.390Z,23.05
2022-07-31T21:05:26.919Z,22.90
2022-07-31T21:10:21.284Z,22.93
2022-07-31T21:15:43.764Z,22.82
2022-07-31T21:20:21.174Z,22.77
2022-07-31T21:25:21.124Z,22.81
2022-07-31T21:30:20.069Z,22.66
2022-07-31T21:35:36.253Z,22.57
2022-07-31T21:40:20.957Z,22.50
2022-07-31T21:45:19.905Z,22.49
2022-07-31T21:50:29.067Z,22.60
2022-07-31T21:55:20.799Z,22.66
2022-07-31T22:00:19.743Z,22.78
2022-07-31T22:05:20.696Z,22.84
2022-07-31T22:10:19.623Z,23.10
2022-07-31T22:15:19.577Z,23.00
2022-07-31T22:20:19.539Z,22.99
2022-07-31T22:25:19.465Z,22.85
2022-07-31T22:30:19.418Z,22.83
2022-07-31T22:35:19.362Z,22.77
2022-07-31T22:40:19.299Z,22.84
2022-07-31T22:45:19.258Z,22.96
2022-07-31T22:50:19.213Z,23.04
2022-07-31T22:55:19.131Z,22.98
2022-07-31T23:00:19.091Z,22.99
2022-07-31T23:05:19.037Z,22.94
2022-07-31T23:10:19.025Z,22.75
2022-07-31T23:15:18.931Z,22.87
2022-07-31T23:20:18.883Z,22.56
2022-07-31T23:25:18.832Z,22.31
